Big Valley, Canada
Current Conditions -  °F | °C
As of 11:00 AM on Thursday 23 Oct 2014 (Local Time) from CYQF Reporting Station
Few Clouds Few Clouds  
Wind Chill: 54°   Ceiling: Unl
Heat Index: 54°   Visibility: 15mi
Dew Point: 36°   Wind: 16mph
Humidity: 51%   Direction: 230°SW
Pressure: 29.48"   Gusts: NA
Location:  52.03°N, 112.75°W
Report Text: CYQF 231700Z 23014KT 15SM FEW120 12/02 A2948 RMK AC1 SLP998 DENSITY ALT 3800FT
Loading
Personal Weather Stations






























Interactive Weather Map
Tropical Storm Tracking
New forecast layout! Learn more

10-Day Weather Forecast

Advertisements
Track Severe Weather on mobile